sensor_id;sensor_type;location;lat;lon;timestamp;P1;P2;P0
65574;PMS5003;52216;54.942;73.394;2023-05-10T00:01:57;34.00;27.50;19.00
65574;PMS5003;52216;54.942;73.394;2023-05-10T00:04:59;37.67;31.00;20.00
65574;PMS5003;52216;54.942;73.394;2023-05-10T00:08:02;35.50;29.00;19.00
65574;PMS5003;52216;54.942;73.394;2023-05-10T00:11:04;36.00;29.25;19.00
65574;PMS5003;52216;54.942;73.394;2023-05-10T00:14:06;37.25;30.00;19.25
65574;PMS5003;52216;54.942;73.394;2023-05-10T00:17:08;39.75;32.25;20.50
65574;PMS5003;52216;54.942;73.394;2023-05-10T00:20:10;38.00;31.00;20.50
65574;PMS5003;52216;54.942;73.394;2023-05-10T00:23:12;36.50;30.00;21.00
65574;PMS5003;52216;54.942;73.394;2023-05-10T00:26:15;39.00;31.50;21.25
65574;PMS5003;52216;54.942;73.394;2023-05-10T00:29:22;41.60;34.20;22.40
65574;PMS5003;52216;54.942;73.394;2023-05-10T00:32:25;43.00;35.00;23.00
65574;PMS5003;52216;54.942;73.394;2023-05-10T00:35:28;46.00;36.20;24.00
65574;PMS5003;52216;54.942;73.394;2023-05-10T00:38:31;42.80;35.00;23.00
65574;PMS5003;52216;54.942;73.394;2023-05-10T00:41:34;40.40;32.60;22.00
65574;PMS5003;52216;54.942;73.394;2023-05-10T00:44:38;43.25;35.00;23.00
65574;PMS5003;52216;54.942;73.394;2023-05-10T00:47:41;41.50;35.50;23.00
65574;PMS5003;52216;54.942;73.394;2023-05-10T00:50:44;42.00;34.00;23.00
65574;PMS5003;52216;54.942;73.394;2023-05-10T00:53:46;40.50;33.00;22.00
65574;PMS5003;52216;54.942;73.394;2023-05-10T00:56:49;40.50;33.00;22.00
65574;PMS5003;52216;54.942;73.394;2023-05-10T00:59:53;38.80;32.00;21.80
65574;PMS5003;52216;54.942;73.394;2023-05-10T01:02:55;39.33;33.00;22.00
65574;PMS5003;52216;54.942;73.394;2023-05-10T01:05:58;38.50;32.00;20.50
65574;PMS5003;52216;54.942;73.394;2023-05-10T01:09:01;42.00;33.00;22.00
65574;PMS5003;52216;54.942;73.394;2023-05-10T01:12:05;39.40;32.80;23.00
65574;PMS5003;52216;54.942;73.394;2023-05-10T01:15:08;42.00;34.00;23.00
65574;PMS5003;52216;54.942;73.394;2023-05-10T01:18:12;43.00;34.00;22.20
65574;PMS5003;52216;54.942;73.394;2023-05-10T01:27:47;39.00;31.00;21.00
65574;PMS5003;52216;54.942;73.394;2023-05-10T01:34:03;35.00;29.00;19.00
65574;PMS5003;52216;54.942;73.394;2023-05-10T01:37:10;33.00;29.00;18.50
65574;PMS5003;52216;54.942;73.394;2023-05-10T01:40:32;34.40;28.00;17.60
65574;PMS5003;52216;54.942;73.394;2023-05-10T01:44:24;36.40;29.00;19.00
65574;PMS5003;52216;54.942;73.394;2023-05-10T01:47:14;32.00;28.00;18.00
65574;PMS5003;52216;54.942;73.394;2023-05-10T01:50:22;31.00;27.50;17.00
65574;PMS5003;52216;54.942;73.394;2023-05-10T01:53:24;32.25;27.00;18.00
65574;PMS5003;52216;54.942;73.394;2023-05-10T01:56:29;32.20;26.80;18.20
65574;PMS5003;52216;54.942;73.394;2023-05-10T01:59:36;34.25;26.50;18.00
65574;PMS5003;52216;54.942;73.394;2023-05-10T02:02:47;33.00;27.00;18.00
65574;PMS5003;52216;54.942;73.394;2023-05-10T02:05:52;30.40;26.00;18.00
65574;PMS5003;52216;54.942;73.394;2023-05-10T02:08:56;27.00;24.00;17.00
65574;PMS5003;52216;54.942;73.394;2023-05-10T02:11:59;29.00;26.00;17.00
65574;PMS5003;52216;54.942;73.394;2023-05-10T02:15:04;28.00;25.00;17.00
65574;PMS5003;52216;54.942;73.394;2023-05-10T02:18:09;27.20;23.60;17.00
65574;PMS5003;52216;54.942;73.394;2023-05-10T02:21:14;29.50;25.50;16.00
65574;PMS5003;52216;54.942;73.394;2023-05-10T02:24:18;30.40;27.20;18.00
65574;PMS5003;52216;54.942;73.394;2023-05-10T02:27:21;30.75;27.00;18.00
65574;PMS5003;52216;54.942;73.394;2023-05-10T02:30:24;28.50;26.00;17.00
65574;PMS5003;52216;54.942;73.394;2023-05-10T02:33:27;28.00;25.50;16.25
65574;PMS5003;52216;54.942;73.394;2023-05-10T02:36:31;30.00;24.50;16.00
65574;PMS5003;52216;54.942;73.394;2023-05-10T02:39:33;35.50;29.25;19.00
65574;PMS5003;52216;54.942;73.394;2023-05-10T02:42:37;36.33;29.33;19.33
65574;PMS5003;52216;54.942;73.394;2023-05-10T02:45:39;35.00;29.67;19.67
65574;PMS5003;52216;54.942;73.394;2023-05-10T02:48:43;38.75;31.00;21.00
65574;PMS5003;52216;54.942;73.394;2023-05-10T02:51:56;39.50;31.00;20.00
65574;PMS5003;52216;54.942;73.394;2023-05-10T02:55:02;38.75;31.00;21.00
65574;PMS5003;52216;54.942;73.394;2023-05-10T02:58:07;34.75;29.50;19.00
65574;PMS5003;52216;54.942;73.394;2023-05-10T03:01:09;34.50;29.00;19.00
65574;PMS5003;52216;54.942;73.394;2023-05-10T03:04:13;29.60;27.00;18.00
65574;PMS5003;52216;54.942;73.394;2023-05-10T03:07:23;36.75;29.50;19.50
65574;PMS5003;52216;54.942;73.394;2023-05-10T03:10:27;39.75;31.00;19.75
65574;PMS5003;52216;54.942;73.394;2023-05-10T03:13:43;38.00;31.67;20.33
65574;PMS5003;52216;54.942;73.394;2023-05-10T03:17:30;40.25;33.00;22.25
65574;PMS5003;52216;54.942;73.394;2023-05-10T03:20:35;41.50;35.00;23.00
65574;PMS5003;52216;54.942;73.394;2023-05-10T03:27:11;42.00;35.00;23.33
65574;PMS5003;52216;54.942;73.394;2023-05-10T03:30:18;41.60;33.00;23.00
65574;PMS5003;52216;54.942;73.394;2023-05-10T03:33:23;37.60;31.60;21.00
65574;PMS5003;52216;54.942;73.394;2023-05-10T03:36:26;37.60;31.60;21.00
65574;PMS5003;52216;54.942;73.394;2023-05-10T03:39:30;38.75;31.50;20.75
65574;PMS5003;52216;54.942;73.394;2023-05-10T03:42:36;40.40;32.00;21.00
65574;PMS5003;52216;54.942;73.394;2023-05-10T03:45:38;39.00;31.50;21.00
65574;PMS5003;52216;54.942;73.394;2023-05-10T03:48:41;39.60;31.60;20.60
65574;PMS5003;52216;54.942;73.394;2023-05-10T03:51:43;41.00;32.00;22.00
65574;PMS5003;52216;54.942;73.394;2023-05-10T03:54:47;37.00;30.80;20.80
65574;PMS5003;52216;54.942;73.394;2023-05-10T03:57:49;35.75;30.00;20.50
65574;PMS5003;52216;54.942;73.394;2023-05-10T04:00:52;33.80;29.20;20.00
65574;PMS5003;52216;54.942;73.394;2023-05-10T04:03:56;34.25;30.00;19.25
65574;PMS5003;52216;54.942;73.394;2023-05-10T04:06:58;39.25;31.50;20.50
65574;PMS5003;52216;54.942;73.394;2023-05-10T04:10:02;39.50;31.75;21.00
65574;PMS5003;52216;54.942;73.394;2023-05-10T04:13:06;37.00;31.75;21.00
65574;PMS5003;52216;54.942;73.394;2023-05-10T04:16:10;35.40;30.00;20.60
65574;PMS5003;52216;54.942;73.394;2023-05-10T04:19:13;37.00;30.80;20.20
65574;PMS5003;52216;54.942;73.394;2023-05-10T04:22:15;36.50;31.00;19.50
65574;PMS5003;52216;54.942;73.394;2023-05-10T04:25:17;35.00;30.00;19.00
65574;PMS5003;52216;54.942;73.394;2023-05-10T04:28:21;32.25;28.75;19.00
65574;PMS5003;52216;54.942;73.394;2023-05-10T04:31:23;35.75;29.50;19.00
65574;PMS5003;52216;54.942;73.394;2023-05-10T04:34:26;31.00;27.00;18.00
65574;PMS5003;52216;54.942;73.394;2023-05-10T04:37:28;32.50;27.50;18.00
65574;PMS5003;52216;54.942;73.394;2023-05-10T04:40:31;28.80;27.00;18.00
65574;PMS5003;52216;54.942;73.394;2023-05-10T04:43:37;27.60;25.00;18.20
65574;PMS5003;52216;54.942;73.394;2023-05-10T04:46:40;31.40;26.60;18.00
65574;PMS5003;52216;54.942;73.394;2023-05-10T04:49:42;32.50;27.50;19.00
65574;PMS5003;52216;54.942;73.394;2023-05-10T04:52:44;32.00;27.75;18.00
65574;PMS5003;52216;54.942;73.394;2023-05-10T04:55:48;30.00;28.00;18.00
65574;PMS5003;52216;54.942;73.394;2023-05-10T04:58:50;33.50;29.00;18.00
65574;PMS5003;52216;54.942;73.394;2023-05-10T05:01:53;33.00;28.00;16.60
65574;PMS5003;52216;54.942;73.394;2023-05-10T05:04:56;29.00;27.40;17.20
65574;PMS5003;52216;54.942;73.394;2023-05-10T05:07:59;29.00;27.00;18.00
65574;PMS5003;52216;54.942;73.394;2023-05-10T05:11:01;29.25;27.00;18.00
65574;PMS5003;52216;54.942;73.394;2023-05-10T05:14:04;28.00;25.00;16.60
65574;PMS5003;52216;54.942;73.394;2023-05-10T05:17:06;27.50;25.25;16.50
65574;PMS5003;52216;54.942;73.394;2023-05-10T05:20:10;30.00;27.00;18.00
65574;PMS5003;52216;54.942;73.394;2023-05-10T05:23:13;32.00;28.00;18.00
65574;PMS5003;52216;54.942;73.394;2023-05-10T05:26:15;31.00;27.00;18.00
65574;PMS5003;52216;54.942;73.394;2023-05-10T05:29:17;31.50;28.00;18.00
65574;PMS5003;52216;54.942;73.394;2023-05-10T05:32:19;32.00;27.25;17.00
65574;PMS5003;52216;54.942;73.394;2023-05-10T05:35:23;28.80;26.00;16.60
65574;PMS5003;52216;54.942;73.394;2023-05-10T05:38:26;26.80;24.60;17.00
65574;PMS5003;52216;54.942;73.394;2023-05-10T05:41:28;26.00;25.00;17.50
65574;PMS5003;52216;54.942;73.394;2023-05-10T05:44:30;27.00;25.00;17.00
65574;PMS5003;52216;54.942;73.394;2023-05-10T05:47:32;28.00;25.00;17.00
65574;PMS5003;52216;54.942;73.394;2023-05-10T05:50:34;26.00;24.00;15.00
65574;PMS5003;52216;54.942;73.394;2023-05-10T05:53:36;24.50;23.00;15.00
65574;PMS5003;52216;54.942;73.394;2023-05-10T05:56:40;24.80;23.20;16.80
65574;PMS5003;52216;54.942;73.394;2023-05-10T05:59:42;29.00;25.75;17.00
65574;PMS5003;52216;54.942;73.394;2023-05-10T06:02:45;27.25;25.00;17.00
65574;PMS5003;52216;54.942;73.394;2023-05-10T06:05:48;29.50;26.00;17.00
65574;PMS5003;52216;54.942;73.394;2023-05-10T06:08:50;27.25;25.50;17.00
65574;PMS5003;52216;54.942;73.394;2023-05-10T06:11:52;27.00;26.25;16.00
65574;PMS5003;52216;54.942;73.394;2023-05-10T06:14:54;25.25;25.00;16.00
65574;PMS5003;52216;54.942;73.394;2023-05-10T06:17:56;25.75;24.00;16.00
65574;PMS5003;52216;54.942;73.394;2023-05-10T06:20:58;24.75;24.00;16.00
65574;PMS5003;52216;54.942;73.394;2023-05-10T06:24:01;24.00;22.00;15.00
65574;PMS5003;52216;54.942;73.394;2023-05-10T06:27:05;25.00;23.40;15.00
65574;PMS5003;52216;54.942;73.394;2023-05-10T06:30:08;25.00;24.00;15.60
65574;PMS5003;52216;54.942;73.394;2023-05-10T06:33:11;28.75;26.00;17.00
65574;PMS5003;52216;54.942;73.394;2023-05-10T06:36:14;29.60;25.20;16.80
65574;PMS5003;52216;54.942;73.394;2023-05-10T06:39:17;25.75;23.25;15.00
65574;PMS5003;52216;54.942;73.394;2023-05-10T06:42:18;22.50;22.00;14.50
65574;PMS5003;52216;54.942;73.394;2023-05-10T06:45:23;25.60;22.80;15.00
65574;PMS5003;52216;54.942;73.394;2023-05-10T06:48:25;24.00;21.00;15.00
65574;PMS5003;52216;54.942;73.394;2023-05-10T06:51:27;25.50;22.25;15.50
65574;PMS5003;52216;54.942;73.394;2023-05-10T06:54:29;26.00;22.00;15.00
65574;PMS5003;52216;54.942;73.394;2023-05-10T06:57:32;23.67;23.00;15.00
65574;PMS5003;52216;54.942;73.394;2023-05-10T07:00:35;23.60;23.60;15.60
65574;PMS5003;52216;54.942;73.394;2023-05-10T07:04:09;25.00;24.00;15.00
65574;PMS5003;52216;54.942;73.394;2023-05-10T07:07:13;27.00;26.00;17.00
65574;PMS5003;52216;54.942;73.394;2023-05-10T07:10:15;25.00;24.00;17.00
65574;PMS5003;52216;54.942;73.394;2023-05-10T07:13:17;24.00;23.50;15.50
65574;PMS5003;52216;54.942;73.394;2023-05-10T07:16:19;24.00;23.25;16.00
65574;PMS5003;52216;54.942;73.394;2023-05-10T07:19:23;24.00;23.00;16.00
65574;PMS5003;52216;54.942;73.394;2023-05-10T07:22:27;23.00;22.00;15.00
65574;PMS5003;52216;54.942;73.394;2023-05-10T07:25:30;22.25;20.25;14.00
65574;PMS5003;52216;54.942;73.394;2023-05-10T07:28:33;21.00;19.00;12.00
65574;PMS5003;52216;54.942;73.394;2023-05-10T07:31:35;24.00;23.50;14.00
65574;PMS5003;52216;54.942;73.394;2023-05-10T07:34:39;25.00;24.00;14.50
65574;PMS5003;52216;54.942;73.394;2023-05-10T07:37:41;25.00;24.00;16.00
65574;PMS5003;52216;54.942;73.394;2023-05-10T07:40:43;24.25;21.00;15.00
65574;PMS5003;52216;54.942;73.394;2023-05-10T07:43:48;23.00;20.00;15.00
65574;PMS5003;52216;54.942;73.394;2023-05-10T07:46:50;24.00;22.75;15.00
65574;PMS5003;52216;54.942;73.394;2023-05-10T07:49:53;24.50;20.00;16.00
65574;PMS5003;52216;54.942;73.394;2023-05-10T07:52:55;21.33;20.00;14.00
65574;PMS5003;52216;54.942;73.394;2023-05-10T07:55:58;21.75;21.00;15.00
65574;PMS5003;52216;54.942;73.394;2023-05-10T07:59:02;20.50;20.50;14.00
65574;PMS5003;52216;54.942;73.394;2023-05-10T08:02:08;20.50;20.25;12.00
65574;PMS5003;52216;54.942;73.394;2023-05-10T08:05:11;23.00;21.00;11.33
65574;PMS5003;52216;54.942;73.394;2023-05-10T08:08:13;26.67;24.00;14.33
65574;PMS5003;52216;54.942;73.394;2023-05-10T08:11:16;24.00;23.00;15.00
65574;PMS5003;52216;54.942;73.394;2023-05-10T08:14:20;21.00;20.00;14.00
65574;PMS5003;52216;54.942;73.394;2023-05-10T08:17:22;22.75;19.75;13.00
65574;PMS5003;52216;54.942;73.394;2023-05-10T08:20:24;20.00;18.67;13.00
65574;PMS5003;52216;54.942;73.394;2023-05-10T08:23:27;18.25;18.00;12.00
65574;PMS5003;52216;54.942;73.394;2023-05-10T08:26:32;20.75;20.00;10.00
65574;PMS5003;52216;54.942;73.394;2023-05-10T08:29:34;19.00;19.00;9.00
65574;PMS5003;52216;54.942;73.394;2023-05-10T08:32:38;19.50;19.00;11.50
65574;PMS5003;52216;54.942;73.394;2023-05-10T08:35:40;19.25;18.50;10.00
65574;PMS5003;52216;54.942;73.394;2023-05-10T08:38:43;22.00;20.25;10.00
65574;PMS5003;52216;54.942;73.394;2023-05-10T08:41:45;20.67;19.67;11.00
65574;PMS5003;52216;54.942;73.394;2023-05-10T08:44:50;21.75;19.75;10.00
65574;PMS5003;52216;54.942;73.394;2023-05-10T08:47:52;21.00;19.50;10.00
65574;PMS5003;52216;54.942;73.394;2023-05-10T08:50:55;20.00;18.00;10.00
65574;PMS5003;52216;54.942;73.394;2023-05-10T08:53:59;21.00;20.50;13.25
65574;PMS5003;52216;54.942;73.394;2023-05-10T08:57:04;19.00;19.00;14.00
65574;PMS5003;52216;54.942;73.394;2023-05-10T09:00:06;18.50;17.25;10.00
65574;PMS5003;52216;54.942;73.394;2023-05-10T09:03:10;21.00;19.00;9.00
65574;PMS5003;52216;54.942;73.394;2023-05-10T09:06:12;18.00;18.00;9.00
65574;PMS5003;52216;54.942;73.394;2023-05-10T09:09:15;19.00;18.00;8.67
65574;PMS5003;52216;54.942;73.394;2023-05-10T09:12:18;19.00;19.00;10.00
65574;PMS5003;52216;54.942;73.394;2023-05-10T09:15:21;16.25;16.25;8.00
65574;PMS5003;52216;54.942;73.394;2023-05-10T09:18:25;19.00;16.50;8.00
65574;PMS5003;52216;54.942;73.394;2023-05-10T09:21:27;21.20;18.40;8.80
65574;PMS5003;52216;54.942;73.394;2023-05-10T09:24:30;22.25;19.00;10.00
65574;PMS5003;52216;54.942;73.394;2023-05-10T09:27:33;17.75;17.00;8.00
65574;PMS5003;52216;54.942;73.394;2023-05-10T09:30:36;17.00;17.00;8.00
65574;PMS5003;52216;54.942;73.394;2023-05-10T09:33:43;18.00;18.00;9.75
65574;PMS5003;52216;54.942;73.394;2023-05-10T09:36:55;18.00;17.00;12.00
65574;PMS5003;52216;54.942;73.394;2023-05-10T09:39:58;17.20;16.60;10.00
65574;PMS5003;52216;54.942;73.394;2023-05-10T09:46:08;16.00;16.00;8.00
65574;PMS5003;52216;54.942;73.394;2023-05-10T09:49:14;17.00;17.00;8.00
65574;PMS5003;52216;54.942;73.394;2023-05-10T09:52:16;16.00;16.00;8.00
65574;PMS5003;52216;54.942;73.394;2023-05-10T09:55:23;17.00;16.00;7.00
65574;PMS5003;52216;54.942;73.394;2023-05-10T09:58:26;16.00;16.00;8.00
65574;PMS5003;52216;54.942;73.394;2023-05-10T10:01:29;17.00;17.00;8.00
65574;PMS5003;52216;54.942;73.394;2023-05-10T10:04:31;16.75;16.00;8.00
65574;PMS5003;52216;54.942;73.394;2023-05-10T10:07:34;16.00;16.00;8.00
65574;PMS5003;52216;54.942;73.394;2023-05-10T10:10:44;13.50;13.50;7.00
65574;PMS5003;52216;54.942;73.394;2023-05-10T10:13:47;16.75;15.75;7.25
65574;PMS5003;52216;54.942;73.394;2023-05-10T10:16:50;15.25;15.25;7.00
65574;PMS5003;52216;54.942;73.394;2023-05-10T10:19:53;16.00;16.00;6.00
65574;PMS5003;52216;54.942;73.394;2023-05-10T10:22:56;16.50;15.50;8.25
65574;PMS5003;52216;54.942;73.394;2023-05-10T10:26:01;18.00;16.00;7.00
65574;PMS5003;52216;54.942;73.394;2023-05-10T10:35:55;13.00;12.00;7.00
65574;PMS5003;52216;54.942;73.394;2023-05-10T10:39:00;12.25;9.00;6.00
65574;PMS5003;52216;54.942;73.394;2023-05-10T10:42:03;13.50;11.50;7.75
65574;PMS5003;52216;54.942;73.394;2023-05-10T10:45:11;17.25;15.00;9.00
65574;PMS5003;52216;54.942;73.394;2023-05-10T10:48:19;15.00;14.00;9.00
65574;PMS5003;52216;54.942;73.394;2023-05-10T10:51:22;14.75;14.75;8.00
65574;PMS5003;52216;54.942;73.394;2023-05-10T10:54:27;16.00;15.00;7.00
65574;PMS5003;52216;54.942;73.394;2023-05-10T10:57:35;16.00;16.00;8.00
65574;PMS5003;52216;54.942;73.394;2023-05-10T11:00:43;15.25;14.25;8.00
65574;PMS5003;52216;54.942;73.394;2023-05-10T11:07:17;16.50;15.00;8.00
65574;PMS5003;52216;54.942;73.394;2023-05-10T11:10:21;17.00;14.00;8.00
65574;PMS5003;52216;54.942;73.394;2023-05-10T11:13:40;14.00;13.75;6.00
65574;PMS5003;52216;54.942;73.394;2023-05-10T11:16:44;13.50;13.00;7.25
65574;PMS5003;52216;54.942;73.394;2023-05-10T11:20:02;13.25;12.25;7.00
65574;PMS5003;52216;54.942;73.394;2023-05-10T11:23:12;13.00;9.75;5.00
65574;PMS5003;52216;54.942;73.394;2023-05-10T11:26:19;11.00;9.67;4.00
65574;PMS5003;52216;54.942;73.394;2023-05-10T11:29:26;8.25;7.00;3.00
65574;PMS5003;52216;54.942;73.394;2023-05-10T11:32:29;10.00;7.50;5.00
65574;PMS5003;52216;54.942;73.394;2023-05-10T11:35:39;7.00;7.00;3.00
65574;PMS5003;52216;54.942;73.394;2023-05-10T11:38:40;9.00;9.00;4.00
65574;PMS5003;52216;54.942;73.394;2023-05-10T11:41:42;8.50;7.00;3.00
65574;PMS5003;52216;54.942;73.394;2023-05-10T11:44:45;7.67;7.33;4.00
65574;PMS5003;52216;54.942;73.394;2023-05-10T11:47:48;9.75;8.00;4.50
65574;PMS5003;52216;54.942;73.394;2023-05-10T11:50:52;8.00;8.00;4.00
65574;PMS5003;52216;54.942;73.394;2023-05-10T11:53:59;10.00;8.67;5.00
65574;PMS5003;52216;54.942;73.394;2023-05-10T11:57:01;9.00;6.00;4.00
65574;PMS5003;52216;54.942;73.394;2023-05-10T12:00:03;7.67;6.00;3.67
65574;PMS5003;52216;54.942;73.394;2023-05-10T12:03:13;8.50;6.50;4.00
65574;PMS5003;52216;54.942;73.394;2023-05-10T12:06:16;7.00;6.00;3.00
65574;PMS5003;52216;54.942;73.394;2023-05-10T12:09:21;7.00;6.50;3.00
65574;PMS5003;52216;54.942;73.394;2023-05-10T12:12:24;7.00;6.50;4.00
65574;PMS5003;52216;54.942;73.394;2023-05-10T12:15:26;7.00;7.00;3.67
65574;PMS5003;52216;54.942;73.394;2023-05-10T12:18:30;6.75;5.00;3.00
65574;PMS5003;52216;54.942;73.394;2023-05-10T12:21:33;7.00;5.00;3.00
65574;PMS5003;52216;54.942;73.394;2023-05-10T12:24:35;6.50;5.25;2.00
65574;PMS5003;52216;54.942;73.394;2023-05-10T12:27:38;5.67;5.33;2.00
65574;PMS5003;52216;54.942;73.394;2023-05-10T12:30:40;6.33;6.33;3.00
65574;PMS5003;52216;54.942;73.394;2023-05-10T12:33:43;7.00;7.00;2.75
65574;PMS5003;52216;54.942;73.394;2023-05-10T12:36:49;5.75;5.00;2.00
65574;PMS5003;52216;54.942;73.394;2023-05-10T12:39:51;5.67;5.67;3.00
65574;PMS5003;52216;54.942;73.394;2023-05-10T12:42:53;7.00;7.00;2.00
65574;PMS5003;52216;54.942;73.394;2023-05-10T12:45:56;6.00;6.00;3.00
65574;PMS5003;52216;54.942;73.394;2023-05-10T12:48:58;7.75;7.50;3.00
65574;PMS5003;52216;54.942;73.394;2023-05-10T12:52:00;9.00;8.00;3.00
65574;PMS5003;52216;54.942;73.394;2023-05-10T12:55:02;6.25;6.25;3.00
65574;PMS5003;52216;54.942;73.394;2023-05-10T12:58:06;7.00;6.00;2.00
65574;PMS5003;52216;54.942;73.394;2023-05-10T13:01:09;6.00;5.50;2.00
65574;PMS5003;52216;54.942;73.394;2023-05-10T13:04:12;8.00;6.00;3.00
65574;PMS5003;52216;54.942;73.394;2023-05-10T13:07:14;6.00;4.00;2.25
65574;PMS5003;52216;54.942;73.394;2023-05-10T13:10:16;8.00;7.50;3.00
65574;PMS5003;52216;54.942;73.394;2023-05-10T13:13:19;9.00;8.25;4.00
65574;PMS5003;52216;54.942;73.394;2023-05-10T13:16:22;9.00;8.00;3.00
65574;PMS5003;52216;54.942;73.394;2023-05-10T13:19:25;9.50;7.50;3.50
65574;PMS5003;52216;54.942;73.394;2023-05-10T13:22:28;11.00;10.33;4.00
65574;PMS5003;52216;54.942;73.394;2023-05-10T13:25:32;13.00;11.50;5.00
65574;PMS5003;52216;54.942;73.394;2023-05-10T13:28:37;16.00;13.00;6.00
65574;PMS5003;52216;54.942;73.394;2023-05-10T13:31:40;18.75;17.50;8.75
65574;PMS5003;52216;54.942;73.394;2023-05-10T13:34:42;21.50;20.50;10.00
65574;PMS5003;52216;54.942;73.394;2023-05-10T13:37:46;22.50;21.75;11.50
65574;PMS5003;52216;54.942;73.394;2023-05-10T13:40:50;24.00;22.40;14.00
65574;PMS5003;52216;54.942;73.394;2023-05-10T13:43:54;24.50;23.00;13.75
65574;PMS5003;52216;54.942;73.394;2023-05-10T13:47:18;20.83;19.83;13.00
65574;PMS5003;52216;54.942;73.394;2023-05-10T13:50:21;21.00;19.00;12.00
65574;PMS5003;52216;54.942;73.394;2023-05-10T13:53:23;28.75;27.00;17.50
65574;PMS5003;52216;54.942;73.394;2023-05-10T13:56:25;37.50;30.25;20.00
65574;PMS5003;52216;54.942;73.394;2023-05-10T13:59:28;32.60;29.00;18.00
65574;PMS5003;52216;54.942;73.394;2023-05-10T14:02:56;28.00;24.00;17.00
65574;PMS5003;52216;54.942;73.394;2023-05-10T14:05:59;31.60;28.20;17.80
65574;PMS5003;52216;54.942;73.394;2023-05-10T14:09:02;41.75;33.00;21.00
65574;PMS5003;52216;54.942;73.394;2023-05-10T14:12:04;44.50;35.75;21.50
65574;PMS5003;52216;54.942;73.394;2023-05-10T14:15:08;43.60;35.00;21.20
65574;PMS5003;52216;54.942;73.394;2023-05-10T14:18:14;35.60;30.00;20.00
65574;PMS5003;52216;54.942;73.394;2023-05-10T14:21:16;32.25;29.00;20.00
65574;PMS5003;52216;54.942;73.394;2023-05-10T14:24:18;31.00;29.00;19.00
65574;PMS5003;52216;54.942;73.394;2023-05-10T14:27:24;37.00;31.00;18.00
65574;PMS5003;52216;54.942;73.394;2023-05-10T14:30:27;37.50;30.25;18.75
65574;PMS5003;52216;54.942;73.394;2023-05-10T14:33:29;32.25;28.50;18.75
65574;PMS5003;52216;54.942;73.394;2023-05-10T14:36:30;31.00;28.00;18.50
65574;PMS5003;52216;54.942;73.394;2023-05-10T14:39:34;32.20;27.00;18.00
65574;PMS5003;52216;54.942;73.394;2023-05-10T14:42:37;31.00;28.00;18.00
65574;PMS5003;52216;54.942;73.394;2023-05-10T14:45:39;27.00;26.00;17.00
65574;PMS5003;52216;54.942;73.394;2023-05-10T14:48:42;24.00;23.00;15.00
65574;PMS5003;52216;54.942;73.394;2023-05-10T14:51:44;20.00;20.00;11.00
65574;PMS5003;52216;54.942;73.394;2023-05-10T14:54:56;20.00;18.00;10.00
65574;PMS5003;52216;54.942;73.394;2023-05-10T14:58:00;19.40;19.40;9.60
65574;PMS5003;52216;54.942;73.394;2023-05-10T15:01:02;20.00;19.00;8.00
65574;PMS5003;52216;54.942;73.394;2023-05-10T15:04:05;22.40;20.00;9.00
65574;PMS5003;52216;54.942;73.394;2023-05-10T15:07:07;24.33;21.33;10.67
65574;PMS5003;52216;54.942;73.394;2023-05-10T15:10:11;27.75;26.25;16.25
65574;PMS5003;52216;54.942;73.394;2023-05-10T15:13:14;28.50;26.25;17.00
65574;PMS5003;52216;54.942;73.394;2023-05-10T15:16:16;26.50;25.00;15.75
65574;PMS5003;52216;54.942;73.394;2023-05-10T15:19:19;26.33;25.00;16.00
65574;PMS5003;52216;54.942;73.394;2023-05-10T15:22:22;27.00;22.67;16.00
65574;PMS5003;52216;54.942;73.394;2023-05-10T15:25:25;26.50;25.25;16.00
65574;PMS5003;52216;54.942;73.394;2023-05-10T15:28:28;29.75;27.00;17.00
65574;PMS5003;52216;54.942;73.394;2023-05-10T15:31:31;28.20;27.00;17.00
65574;PMS5003;52216;54.942;73.394;2023-05-10T15:34:32;26.00;24.00;16.00
65574;PMS5003;52216;54.942;73.394;2023-05-10T15:37:35;27.00;24.00;16.00
65574;PMS5003;52216;54.942;73.394;2023-05-10T15:40:37;29.75;26.50;17.25
65574;PMS5003;52216;54.942;73.394;2023-05-10T15:43:40;36.80;30.80;19.60
65574;PMS5003;52216;54.942;73.394;2023-05-10T15:46:43;25.00;21.75;12.75
65574;PMS5003;52216;54.942;73.394;2023-05-10T15:49:45;15.25;13.75;5.50
65574;PMS5003;52216;54.942;73.394;2023-05-10T15:52:47;10.00;7.25;4.00
65574;PMS5003;52216;54.942;73.394;2023-05-10T15:55:52;9.25;8.00;3.75
65574;PMS5003;52216;54.942;73.394;2023-05-10T15:58:55;8.50;7.00;3.00
65574;PMS5003;52216;54.942;73.394;2023-05-10T16:01:58;16.00;16.00;10.00
65574;PMS5003;52216;54.942;73.394;2023-05-10T16:05:00;15.00;15.00;6.00
65574;PMS5003;52216;54.942;73.394;2023-05-10T16:08:04;12.00;11.00;5.00
65574;PMS5003;52216;54.942;73.394;2023-05-10T16:11:06;12.25;10.50;5.00
65574;PMS5003;52216;54.942;73.394;2023-05-10T16:14:09;12.00;11.33;6.00
65574;PMS5003;52216;54.942;73.394;2023-05-10T16:17:11;14.00;12.00;6.75
65574;PMS5003;52216;54.942;73.394;2023-05-10T16:20:15;11.50;10.00;5.50
65574;PMS5003;52216;54.942;73.394;2023-05-10T16:23:17;12.00;10.50;5.00
65574;PMS5003;52216;54.942;73.394;2023-05-10T16:26:20;10.67;8.00;4.33
65574;PMS5003;52216;54.942;73.394;2023-05-10T16:29:22;10.00;7.00;4.00
65574;PMS5003;52216;54.942;73.394;2023-05-10T16:32:26;9.50;7.75;4.50
65574;PMS5003;52216;54.942;73.394;2023-05-10T16:35:28;11.00;10.33;5.00
65574;PMS5003;52216;54.942;73.394;2023-05-10T16:38:37;18.17;15.50;8.00
65574;PMS5003;52216;54.942;73.394;2023-05-10T16:41:40;14.00;13.00;6.00
65574;PMS5003;52216;54.942;73.394;2023-05-10T16:44:42;9.00;9.00;3.00
65574;PMS5003;52216;54.942;73.394;2023-05-10T16:47:46;9.00;9.00;4.00
65574;PMS5003;52216;54.942;73.394;2023-05-10T16:50:49;11.00;9.75;4.00
65574;PMS5003;52216;54.942;73.394;2023-05-10T16:53:51;11.00;8.00;4.00
65574;PMS5003;52216;54.942;73.394;2023-05-10T16:56:54;11.00;9.00;3.00
65574;PMS5003;52216;54.942;73.394;2023-05-10T16:59:56;10.00;9.25;4.00
65574;PMS5003;52216;54.942;73.394;2023-05-10T17:02:59;9.00;8.00;4.50
65574;PMS5003;52216;54.942;73.394;2023-05-10T17:06:04;9.00;8.00;5.00
65574;PMS5003;52216;54.942;73.394;2023-05-10T17:09:13;6.25;6.25;3.00
65574;PMS5003;52216;54.942;73.394;2023-05-10T17:12:17;8.00;8.00;4.00
65574;PMS5003;52216;54.942;73.394;2023-05-10T17:15:20;7.50;7.25;3.25
65574;PMS5003;52216;54.942;73.394;2023-05-10T17:18:24;9.50;9.50;4.25
65574;PMS5003;52216;54.942;73.394;2023-05-10T17:21:27;12.75;12.75;5.75
65574;PMS5003;52216;54.942;73.394;2023-05-10T17:24:29;13.00;13.00;7.00
65574;PMS5003;52216;54.942;73.394;2023-05-10T17:27:32;9.00;9.00;5.00
65574;PMS5003;52216;54.942;73.394;2023-05-10T17:30:35;8.00;8.00;5.00
65574;PMS5003;52216;54.942;73.394;2023-05-10T17:33:38;11.00;10.00;5.00